sensor_id;sensor_type;location;lat;lon;timestamp;pressure;altitude;pressure_sealevel;temperature;humidity
63903;BME280;50072;50.678;13.938;2023-02-08T00:00:21;102062.19;;;-7.92;89.41
63903;BME280;50072;50.678;13.938;2023-02-08T00:03:07;102061.09;;;-8.04;90.00
63903;BME280;50072;50.678;13.938;2023-02-08T00:05:33;102046.34;;;-7.95;90.39
63903;BME280;50072;50.678;13.938;2023-02-08T00:07:59;102057.50;;;-7.86;90.09
63903;BME280;50072;50.678;13.938;2023-02-08T00:10:25;102061.44;;;-7.81;89.49
63903;BME280;50072;50.678;13.938;2023-02-08T00:12:51;102056.25;;;-7.81;89.86
63903;BME280;50072;50.678;13.938;2023-02-08T00:15:17;102067.66;;;-7.78;89.21
63903;BME280;50072;50.678;13.938;2023-02-08T00:17:44;102061.41;;;-7.91;89.17
63903;BME280;50072;50.678;13.938;2023-02-08T00:20:11;102065.06;;;-7.89;89.37
63903;BME280;50072;50.678;13.938;2023-02-08T00:22:40;102061.94;;;-7.95;89.92
63903;BME280;50072;50.678;13.938;2023-02-08T00:25:08;102052.28;;;-8.06;90.11
63903;BME280;50072;50.678;13.938;2023-02-08T00:27:41;102059.94;;;-8.08;90.43
63903;BME280;50072;50.678;13.938;2023-02-08T00:30:07;102060.56;;;-8.10;90.37
63903;BME280;50072;50.678;13.938;2023-02-08T00:32:33;102049.44;;;-7.99;90.57
63903;BME280;50072;50.678;13.938;2023-02-08T00:34:59;102051.22;;;-7.98;90.42
63903;BME280;50072;50.678;13.938;2023-02-08T00:37:26;102054.91;;;-7.96;89.76
63903;BME280;50072;50.678;13.938;2023-02-08T00:39:52;102058.00;;;-8.00;90.36
63903;BME280;50072;50.678;13.938;2023-02-08T00:42:21;102066.19;;;-7.95;90.49
63903;BME280;50072;50.678;13.938;2023-02-08T00:44:47;102053.06;;;-7.97;90.27
63903;BME280;50072;50.678;13.938;2023-02-08T00:47:13;102058.41;;;-7.95;90.64
63903;BME280;50072;50.678;13.938;2023-02-08T00:49:39;102060.47;;;-8.02;90.50
63903;BME280;50072;50.678;13.938;2023-02-08T00:52:05;102060.34;;;-8.03;90.44
63903;BME280;50072;50.678;13.938;2023-02-08T00:54:30;102061.72;;;-8.07;90.10
63903;BME280;50072;50.678;13.938;2023-02-08T00:56:56;102054.56;;;-8.09;89.79
63903;BME280;50072;50.678;13.938;2023-02-08T00:59:22;102070.72;;;-8.03;89.98
63903;BME280;50072;50.678;13.938;2023-02-08T01:01:50;102062.66;;;-8.06;89.53
63903;BME280;50072;50.678;13.938;2023-02-08T01:04:16;102067.28;;;-8.12;90.08
63903;BME280;50072;50.678;13.938;2023-02-08T01:06:42;102068.69;;;-8.26;89.88
63903;BME280;50072;50.678;13.938;2023-02-08T01:09:09;102070.03;;;-8.40;89.67
63903;BME280;50072;50.678;13.938;2023-02-08T01:11:35;102073.94;;;-8.35;89.51
63903;BME280;50072;50.678;13.938;2023-02-08T01:14:02;102060.72;;;-8.28;89.38
63903;BME280;50072;50.678;13.938;2023-02-08T01:16:30;102068.59;;;-8.18;89.48
63903;BME280;50072;50.678;13.938;2023-02-08T01:18:59;102066.13;;;-8.16;89.18
63903;BME280;50072;50.678;13.938;2023-02-08T01:21:30;102065.06;;;-8.18;89.60
63903;BME280;50072;50.678;13.938;2023-02-08T01:23:57;102062.84;;;-8.24;89.94
63903;BME280;50072;50.678;13.938;2023-02-08T01:26:24;102056.72;;;-8.24;89.85
63903;BME280;50072;50.678;13.938;2023-02-08T01:28:51;102062.84;;;-8.24;89.48
63903;BME280;50072;50.678;13.938;2023-02-08T01:31:21;102056.84;;;-8.33;89.68
63903;BME280;50072;50.678;13.938;2023-02-08T01:33:47;102060.81;;;-8.37;89.81
63903;BME280;50072;50.678;13.938;2023-02-08T01:36:13;102062.38;;;-8.39;89.79
63903;BME280;50072;50.678;13.938;2023-02-08T01:38:39;102059.28;;;-8.35;90.06
63903;BME280;50072;50.678;13.938;2023-02-08T01:41:07;102066.50;;;-8.22;90.25
63903;BME280;50072;50.678;13.938;2023-02-08T01:46:28;102074.59;;;-8.38;89.93
63903;BME280;50072;50.678;13.938;2023-02-08T01:49:01;102072.69;;;-8.30;89.81
63903;BME280;50072;50.678;13.938;2023-02-08T01:51:33;102063.72;;;-8.34;89.65
63903;BME280;50072;50.678;13.938;2023-02-08T01:54:01;102065.38;;;-8.34;89.70
63903;BME280;50072;50.678;13.938;2023-02-08T01:56:34;102062.50;;;-8.47;88.88
63903;BME280;50072;50.678;13.938;2023-02-08T01:59:04;102067.13;;;-8.54;88.92
63903;BME280;50072;50.678;13.938;2023-02-08T02:01:31;102070.03;;;-8.51;88.64
63903;BME280;50072;50.678;13.938;2023-02-08T02:04:02;102066.94;;;-8.65;88.51
63903;BME280;50072;50.678;13.938;2023-02-08T02:06:36;102065.81;;;-8.78;87.94
63903;BME280;50072;50.678;13.938;2023-02-08T02:09:27;102078.75;;;-8.69;88.73
63903;BME280;50072;50.678;13.938;2023-02-08T02:11:56;102072.28;;;-8.64;89.13
63903;BME280;50072;50.678;13.938;2023-02-08T02:14:23;102055.94;;;-8.63;89.17
63903;BME280;50072;50.678;13.938;2023-02-08T02:16:49;102061.97;;;-8.73;88.88
63903;BME280;50072;50.678;13.938;2023-02-08T02:22:00;102055.44;;;-8.78;89.66
63903;BME280;50072;50.678;13.938;2023-02-08T02:27:49;102057.91;;;-8.79;89.01
63903;BME280;50072;50.678;13.938;2023-02-08T02:35:44;102066.59;;;-8.60;90.51
63903;BME280;50072;50.678;13.938;2023-02-08T02:46:57;102073.88;;;-8.56;90.91
63903;BME280;50072;50.678;13.938;2023-02-08T02:52:38;102064.84;;;-8.70;90.54
63903;BME280;50072;50.678;13.938;2023-02-08T02:55:15;102061.84;;;-8.74;89.88
63903;BME280;50072;50.678;13.938;2023-02-08T02:57:43;102060.50;;;-8.79;89.61
63903;BME280;50072;50.678;13.938;2023-02-08T03:00:15;102057.97;;;-8.88;89.85
63903;BME280;50072;50.678;13.938;2023-02-08T03:02:43;102071.81;;;-8.79;88.92
63903;BME280;50072;50.678;13.938;2023-02-08T03:05:11;102075.38;;;-8.87;89.12
63903;BME280;50072;50.678;13.938;2023-02-08T03:13:11;102082.41;;;-8.86;89.56
63903;BME280;50072;50.678;13.938;2023-02-08T03:21:36;102093.75;;;-8.94;89.60
63903;BME280;50072;50.678;13.938;2023-02-08T03:24:28;102094.44;;;-8.87;89.67
63903;BME280;50072;50.678;13.938;2023-02-08T03:27:27;102088.63;;;-8.84;89.84
63903;BME280;50072;50.678;13.938;2023-02-08T03:37:40;102101.75;;;-8.82;90.03
63903;BME280;50072;50.678;13.938;2023-02-08T03:40:19;102106.66;;;-8.86;89.82
63903;BME280;50072;50.678;13.938;2023-02-08T03:42:49;102100.97;;;-8.81;89.78
63903;BME280;50072;50.678;13.938;2023-02-08T03:45:22;102101.59;;;-8.84;90.23
63903;BME280;50072;50.678;13.938;2023-02-08T03:47:52;102109.25;;;-8.86;90.17
63903;BME280;50072;50.678;13.938;2023-02-08T03:50:22;102106.16;;;-8.81;90.22
63903;BME280;50072;50.678;13.938;2023-02-08T03:52:49;102114.44;;;-8.86;90.07
63903;BME280;50072;50.678;13.938;2023-02-08T03:55:20;102108.22;;;-8.88;89.85
63903;BME280;50072;50.678;13.938;2023-02-08T03:58:05;102108.97;;;-8.89;89.70
63903;BME280;50072;50.678;13.938;2023-02-08T04:00:38;102109.88;;;-8.88;89.99
63903;BME280;50072;50.678;13.938;2023-02-08T04:03:26;102110.50;;;-8.91;89.20
63903;BME280;50072;50.678;13.938;2023-02-08T04:05:53;102110.22;;;-8.94;88.97
63903;BME280;50072;50.678;13.938;2023-02-08T04:08:20;102115.75;;;-8.99;88.41
63903;BME280;50072;50.678;13.938;2023-02-08T04:10:46;102110.69;;;-8.98;88.48
63903;BME280;50072;50.678;13.938;2023-02-08T04:13:12;102110.56;;;-8.99;88.32
63903;BME280;50072;50.678;13.938;2023-02-08T04:15:38;102118.53;;;-9.07;88.36
63903;BME280;50072;50.678;13.938;2023-02-08T04:18:06;102116.72;;;-9.08;88.94
63903;BME280;50072;50.678;13.938;2023-02-08T04:20:32;102119.47;;;-9.06;88.58
63903;BME280;50072;50.678;13.938;2023-02-08T04:22:58;102107.66;;;-9.22;87.95
63903;BME280;50072;50.678;13.938;2023-02-08T04:25:23;102106.59;;;-9.24;88.73
63903;BME280;50072;50.678;13.938;2023-02-08T04:27:49;102107.38;;;-9.25;88.85
63903;BME280;50072;50.678;13.938;2023-02-08T04:30:15;102110.53;;;-9.18;88.86
63903;BME280;50072;50.678;13.938;2023-02-08T04:32:41;102114.41;;;-9.32;88.04
63903;BME280;50072;50.678;13.938;2023-02-08T04:35:07;102116.69;;;-9.27;88.05
63903;BME280;50072;50.678;13.938;2023-02-08T04:37:33;102113.03;;;-9.29;88.11
63903;BME280;50072;50.678;13.938;2023-02-08T04:39:59;102108.91;;;-9.27;88.28
63903;BME280;50072;50.678;13.938;2023-02-08T04:42:25;102112.25;;;-9.28;88.56
63903;BME280;50072;50.678;13.938;2023-02-08T04:44:51;102103.09;;;-9.24;88.79
63903;BME280;50072;50.678;13.938;2023-02-08T04:47:17;102108.13;;;-9.26;88.58
63903;BME280;50072;50.678;13.938;2023-02-08T04:49:42;102110.59;;;-9.27;88.33
63903;BME280;50072;50.678;13.938;2023-02-08T04:52:08;102111.00;;;-9.23;88.51
63903;BME280;50072;50.678;13.938;2023-02-08T04:54:34;102111.16;;;-9.21;88.83
63903;BME280;50072;50.678;13.938;2023-02-08T04:57:00;102113.75;;;-9.21;89.21
63903;BME280;50072;50.678;13.938;2023-02-08T04:59:26;102115.72;;;-9.18;89.47
63903;BME280;50072;50.678;13.938;2023-02-08T05:01:52;102120.91;;;-9.18;89.67
63903;BME280;50072;50.678;13.938;2023-02-08T05:04:18;102116.44;;;-9.11;89.53
63903;BME280;50072;50.678;13.938;2023-02-08T05:06:44;102124.22;;;-9.11;90.14
63903;BME280;50072;50.678;13.938;2023-02-08T05:09:10;102126.59;;;-9.04;90.36
63903;BME280;50072;50.678;13.938;2023-02-08T05:11:36;102125.22;;;-9.00;90.44
63903;BME280;50072;50.678;13.938;2023-02-08T05:14:02;102124.13;;;-8.93;91.28
63903;BME280;50072;50.678;13.938;2023-02-08T05:16:29;102126.84;;;-8.92;91.34
63903;BME280;50072;50.678;13.938;2023-02-08T05:18:56;102134.38;;;-8.95;90.93
63903;BME280;50072;50.678;13.938;2023-02-08T05:21:24;102131.75;;;-8.95;90.58
63903;BME280;50072;50.678;13.938;2023-02-08T05:23:52;102129.44;;;-8.92;90.90
63903;BME280;50072;50.678;13.938;2023-02-08T05:26:19;102125.44;;;-8.88;90.76
63903;BME280;50072;50.678;13.938;2023-02-08T05:28:45;102131.25;;;-8.91;90.81
63903;BME280;50072;50.678;13.938;2023-02-08T05:31:23;102129.44;;;-8.92;90.21
63903;BME280;50072;50.678;13.938;2023-02-08T05:33:51;102129.72;;;-8.89;89.77
63903;BME280;50072;50.678;13.938;2023-02-08T05:36:19;102135.66;;;-9.09;88.41
63903;BME280;50072;50.678;13.938;2023-02-08T05:38:46;102128.16;;;-9.06;89.06
63903;BME280;50072;50.678;13.938;2023-02-08T05:41:12;102134.09;;;-9.07;88.60
63903;BME280;50072;50.678;13.938;2023-02-08T05:43:38;102133.88;;;-9.18;88.51
63903;BME280;50072;50.678;13.938;2023-02-08T05:46:04;102143.97;;;-9.22;88.35
63903;BME280;50072;50.678;13.938;2023-02-08T05:48:31;102144.94;;;-9.30;87.03
63903;BME280;50072;50.678;13.938;2023-02-08T05:50:58;102146.91;;;-9.27;87.75
63903;BME280;50072;50.678;13.938;2023-02-08T05:53:25;102146.09;;;-9.26;87.80
63903;BME280;50072;50.678;13.938;2023-02-08T05:55:52;102148.88;;;-9.33;87.74
63903;BME280;50072;50.678;13.938;2023-02-08T05:58:19;102158.94;;;-9.28;88.37
63903;BME280;50072;50.678;13.938;2023-02-08T06:00:46;102149.53;;;-9.36;88.56
63903;BME280;50072;50.678;13.938;2023-02-08T06:03:14;102153.19;;;-9.34;88.28
63903;BME280;50072;50.678;13.938;2023-02-08T06:05:40;102153.19;;;-9.34;88.24
63903;BME280;50072;50.678;13.938;2023-02-08T06:08:07;102149.81;;;-9.33;88.42
63903;BME280;50072;50.678;13.938;2023-02-08T06:10:35;102158.06;;;-9.37;88.04
63903;BME280;50072;50.678;13.938;2023-02-08T06:13:03;102142.53;;;-9.37;88.46
63903;BME280;50072;50.678;13.938;2023-02-08T06:15:30;102158.41;;;-9.43;88.49
63903;BME280;50072;50.678;13.938;2023-02-08T06:17:57;102154.13;;;-9.42;88.65
63903;BME280;50072;50.678;13.938;2023-02-08T06:20:24;102153.19;;;-9.34;89.11
63903;BME280;50072;50.678;13.938;2023-02-08T06:22:53;102153.59;;;-9.29;88.93
63903;BME280;50072;50.678;13.938;2023-02-08T06:25:20;102159.41;;;-9.32;88.76
63903;BME280;50072;50.678;13.938;2023-02-08T06:27:47;102161.25;;;-9.31;88.49
63903;BME280;50072;50.678;13.938;2023-02-08T06:30:15;102161.56;;;-9.37;88.42
63903;BME280;50072;50.678;13.938;2023-02-08T06:32:42;102173.16;;;-9.33;88.49
63903;BME280;50072;50.678;13.938;2023-02-08T06:35:11;102166.75;;;-9.37;88.49
63903;BME280;50072;50.678;13.938;2023-02-08T06:37:37;102172.38;;;-9.32;88.75
63903;BME280;50072;50.678;13.938;2023-02-08T06:40:05;102176.03;;;-9.30;89.15
63903;BME280;50072;50.678;13.938;2023-02-08T06:42:32;102175.09;;;-9.22;89.05
63903;BME280;50072;50.678;13.938;2023-02-08T06:44:58;102169.63;;;-9.25;88.58
63903;BME280;50072;50.678;13.938;2023-02-08T06:47:26;102186.66;;;-9.18;87.95
63903;BME280;50072;50.678;13.938;2023-02-08T06:49:53;102192.47;;;-9.21;87.82
63903;BME280;50072;50.678;13.938;2023-02-08T06:52:20;102189.09;;;-9.20;88.29
63903;BME280;50072;50.678;13.938;2023-02-08T06:54:46;102185.47;;;-9.22;88.43
63903;BME280;50072;50.678;13.938;2023-02-08T06:57:12;102187.88;;;-9.14;88.46
63903;BME280;50072;50.678;13.938;2023-02-08T06:59:39;102199.72;;;-9.08;88.89
63903;BME280;50072;50.678;13.938;2023-02-08T07:02:11;102201.38;;;-8.99;88.87
63903;BME280;50072;50.678;13.938;2023-02-08T07:04:37;102197.19;;;-8.89;89.38
63903;BME280;50072;50.678;13.938;2023-02-08T07:07:03;102194.13;;;-8.85;88.69
63903;BME280;50072;50.678;13.938;2023-02-08T07:09:32;102201.72;;;-8.77;88.89
63903;BME280;50072;50.678;13.938;2023-02-08T07:12:02;102202.56;;;-8.68;88.79
63903;BME280;50072;50.678;13.938;2023-02-08T07:14:40;102215.13;;;-8.54;88.76
63903;BME280;50072;50.678;13.938;2023-02-08T07:17:06;102217.00;;;-8.42;87.77
63903;BME280;50072;50.678;13.938;2023-02-08T07:19:35;102221.56;;;-8.40;86.85
63903;BME280;50072;50.678;13.938;2023-02-08T07:22:01;102224.59;;;-8.35;87.10
63903;BME280;50072;50.678;13.938;2023-02-08T07:24:41;102226.94;;;-8.19;87.92
63903;BME280;50072;50.678;13.938;2023-02-08T07:27:12;102221.31;;;-8.05;88.27
63903;BME280;50072;50.678;13.938;2023-02-08T07:29:39;102222.03;;;-7.87;89.33
63903;BME280;50072;50.678;13.938;2023-02-08T07:32:06;102215.09;;;-7.77;88.69
63903;BME280;50072;50.678;13.938;2023-02-08T07:34:35;102210.47;;;-7.61;88.43
63903;BME280;50072;50.678;13.938;2023-02-08T07:37:00;102209.09;;;-7.47;88.67
63903;BME280;50072;50.678;13.938;2023-02-08T07:39:26;102212.16;;;-7.32;88.06
63903;BME280;50072;50.678;13.938;2023-02-08T07:41:53;102207.72;;;-7.23;87.08
63903;BME280;50072;50.678;13.938;2023-02-08T07:44:19;102212.44;;;-7.19;86.52
63903;BME280;50072;50.678;13.938;2023-02-08T07:46:45;102207.34;;;-7.17;87.07
63903;BME280;50072;50.678;13.938;2023-02-08T07:49:11;102219.63;;;-7.06;86.89
63903;BME280;50072;50.678;13.938;2023-02-08T07:51:37;102219.88;;;-7.03;87.59
63903;BME280;50072;50.678;13.938;2023-02-08T07:54:03;102222.53;;;-6.92;87.55
63903;BME280;50072;50.678;13.938;2023-02-08T07:56:28;102222.91;;;-6.88;87.13
63903;BME280;50072;50.678;13.938;2023-02-08T07:58:55;102215.88;;;-6.79;87.08
63903;BME280;50072;50.678;13.938;2023-02-08T08:01:21;102211.72;;;-6.77;86.63
63903;BME280;50072;50.678;13.938;2023-02-08T08:03:49;102215.38;;;-6.64;86.14
63903;BME280;50072;50.678;13.938;2023-02-08T08:06:16;102217.59;;;-6.59;85.71
63903;BME280;50072;50.678;13.938;2023-02-08T08:08:42;102219.78;;;-6.53;85.22
63903;BME280;50072;50.678;13.938;2023-02-08T08:11:16;102220.59;;;-6.44;84.56
63903;BME280;50072;50.678;13.938;2023-02-08T08:13:43;102220.47;;;-6.45;84.83
63903;BME280;50072;50.678;13.938;2023-02-08T08:16:09;102218.06;;;-6.21;84.55
63903;BME280;50072;50.678;13.938;2023-02-08T08:18:36;102216.59;;;-5.97;84.91
63903;BME280;50072;50.678;13.938;2023-02-08T08:21:02;102221.22;;;-5.73;83.62
63903;BME280;50072;50.678;13.938;2023-02-08T08:23:28;102224.22;;;-5.46;83.02
63903;BME280;50072;50.678;13.938;2023-02-08T08:25:54;102215.84;;;-5.31;82.90
63903;BME280;50072;50.678;13.938;2023-02-08T08:28:20;102226.38;;;-5.08;82.41
63903;BME280;50072;50.678;13.938;2023-02-08T08:30:46;102221.28;;;-4.84;81.85
63903;BME280;50072;50.678;13.938;2023-02-08T08:33:12;102224.28;;;-4.68;81.91
63903;BME280;50072;50.678;13.938;2023-02-08T08:35:39;102231.25;;;-4.56;81.21
63903;BME280;50072;50.678;13.938;2023-02-08T08:38:05;102236.00;;;-4.40;81.66
63903;BME280;50072;50.678;13.938;2023-02-08T08:40:31;102234.91;;;-4.20;81.34
63903;BME280;50072;50.678;13.938;2023-02-08T08:42:58;102233.41;;;-4.05;81.45
63903;BME280;50072;50.678;13.938;2023-02-08T08:45:23;102230.59;;;-3.84;80.35
63903;BME280;50072;50.678;13.938;2023-02-08T08:47:51;102233.88;;;-3.75;80.73
63903;BME280;50072;50.678;13.938;2023-02-08T08:50:16;102229.56;;;-3.62;81.18
63903;BME280;50072;50.678;13.938;2023-02-08T08:52:43;102233.56;;;-3.56;80.92
63903;BME280;50072;50.678;13.938;2023-02-08T08:55:09;102234.94;;;-3.49;81.22
63903;BME280;50072;50.678;13.938;2023-02-08T08:57:36;102240.03;;;-3.39;79.72
63903;BME280;50072;50.678;13.938;2023-02-08T09:00:03;102232.41;;;-3.36;77.91
63903;BME280;50072;50.678;13.938;2023-02-08T09:02:30;102242.09;;;-3.35;78.61
63903;BME280;50072;50.678;13.938;2023-02-08T09:04:56;102238.91;;;-3.31;77.91
63903;BME280;50072;50.678;13.938;2023-02-08T09:07:26;102245.34;;;-3.25;78.42
63903;BME280;50072;50.678;13.938;2023-02-08T09:09:51;102249.34;;;-3.19;78.37
63903;BME280;50072;50.678;13.938;2023-02-08T09:12:17;102244.75;;;-3.09;78.01
63903;BME280;50072;50.678;13.938;2023-02-08T09:14:43;102249.88;;;-3.11;77.56
63903;BME280;50072;50.678;13.938;2023-02-08T09:17:11;102245.31;;;-3.02;77.07
63903;BME280;50072;50.678;13.938;2023-02-08T09:19:37;102245.25;;;-2.90;78.21
63903;BME280;50072;50.678;13.938;2023-02-08T09:22:07;102242.50;;;-2.80;77.20
63903;BME280;50072;50.678;13.938;2023-02-08T09:24:34;102237.34;;;-2.78;75.66
63903;BME280;50072;50.678;13.938;2023-02-08T09:27:00;102243.88;;;-2.60;77.32
63903;BME280;50072;50.678;13.938;2023-02-08T09:29:27;102237.63;;;-2.36;75.90
63903;BME280;50072;50.678;13.938;2023-02-08T09:31:55;102227.63;;;-2.03;75.04
63903;BME280;50072;50.678;13.938;2023-02-08T09:34:22;102233.69;;;-1.78;73.26
63903;BME280;50072;50.678;13.938;2023-02-08T09:36:49;102236.31;;;-1.78;71.49
63903;BME280;50072;50.678;13.938;2023-02-08T09:39:18;102235.72;;;-1.74;71.86
63903;BME280;50072;50.678;13.938;2023-02-08T09:42:08;102242.91;;;-1.71;70.76
63903;BME280;50072;50.678;13.938;2023-02-08T09:47:41;102242.56;;;-1.35;70.10
63903;BME280;50072;50.678;13.938;2023-02-08T09:50:16;102240.50;;;-0.71;69.53
63903;BME280;50072;50.678;13.938;2023-02-08T09:52:57;102239.59;;;-0.13;66.49
63903;BME280;50072;50.678;13.938;2023-02-08T09:55:42;102241.59;;;0.21;65.51
63903;BME280;50072;50.678;13.938;2023-02-08T09:58:36;102231.06;;;0.06;65.19
63903;BME280;50072;50.678;13.938;2023-02-08T10:01:06;102235.34;;;0.65;64.36
63903;BME280;50072;50.678;13.938;2023-02-08T10:03:41;102227.44;;;0.96;63.31
63903;BME280;50072;50.678;13.938;2023-02-08T10:06:16;102225.91;;;1.33;61.38
63903;BME280;50072;50.678;13.938;2023-02-08T10:08:43;102219.28;;;1.58;60.72
63903;BME280;50072;50.678;13.938;2023-02-08T10:23:27;102223.84;;;2.85;53.80
63903;BME280;50072;50.678;13.938;2023-02-08T10:36:39;102182.34;;;4.03;50.72
63903;BME280;50072;50.678;13.938;2023-02-08T10:39:19;102183.41;;;4.50;49.58
63903;BME280;50072;50.678;13.938;2023-02-08T10:41:48;102187.47;;;4.86;47.40
63903;BME280;50072;50.678;13.938;2023-02-08T10:47:43;102170.91;;;4.25;49.37
63903;BME280;50072;50.678;13.938;2023-02-08T10:52:58;102177.63;;;6.31;44.52
63903;BME280;50072;50.678;13.938;2023-02-08T10:55:24;102174.22;;;6.63;43.38
63903;BME280;50072;50.678;13.938;2023-02-08T10:57:55;102166.81;;;7.12;42.68
63903;BME280;50072;50.678;13.938;2023-02-08T11:00:26;102159.31;;;7.60;41.64
63903;BME280;50072;50.678;13.938;2023-02-08T11:02:54;102157.16;;;7.81;41.76
63903;BME280;50072;50.678;13.938;2023-02-08T11:08:17;102158.25;;;8.22;38.63
63903;BME280;50072;50.678;13.938;2023-02-08T11:13:20;102146.00;;;9.10;36.14
63903;BME280;50072;50.678;13.938;2023-02-08T11:15:48;102139.19;;;9.26;37.17
63903;BME280;50072;50.678;13.938;2023-02-08T11:18:27;102129.34;;;10.23;34.84
63903;BME280;50072;50.678;13.938;2023-02-08T11:20:58;102122.69;;;10.51;34.15
63903;BME280;50072;50.678;13.938;2023-02-08T11:23:30;102120.78;;;11.11;33.12
63903;BME280;50072;50.678;13.938;2023-02-08T11:29:01;102107.44;;;11.99;30.60
63903;BME280;50072;50.678;13.938;2023-02-08T11:31:28;102110.56;;;11.54;30.45
63903;BME280;50072;50.678;13.938;2023-02-08T11:34:04;102105.88;;;11.33;31.19
63903;BME280;50072;50.678;13.938;2023-02-08T11:36:32;102098.25;;;11.75;31.34
63903;BME280;50072;50.678;13.938;2023-02-08T11:39:15;102089.31;;;11.76;30.64
63903;BME280;50072;50.678;13.938;2023-02-08T11:41:43;102091.75;;;12.60;30.18
63903;BME280;50072;50.678;13.938;2023-02-08T11:44:14;102084.03;;;13.78;28.70
63903;BME280;50072;50.678;13.938;2023-02-08T11:46:45;102075.06;;;13.76;27.64
63903;BME280;50072;50.678;13.938;2023-02-08T11:49:24;102082.25;;;13.88;27.37
63903;BME280;50072;50.678;13.938;2023-02-08T11:51:52;102075.09;;;13.68;27.51
63903;BME280;50072;50.678;13.938;2023-02-08T11:54:39;102083.13;;;14.18;27.28
63903;BME280;50072;50.678;13.938;2023-02-08T11:57:16;102084.91;;;14.39;26.39
63903;BME280;50072;50.678;13.938;2023-02-08T11:59:45;102075.97;;;13.78;26.44
63903;BME280;50072;50.678;13.938;2023-02-08T12:02:38;102077.75;;;14.01;26.64
63903;BME280;50072;50.678;13.938;2023-02-08T12:05:12;102069.59;;;14.64;26.23
63903;BME280;50072;50.678;13.938;2023-02-08T12:10:41;102071.63;;;11.97;27.94
63903;BME280;50072;50.678;13.938;2023-02-08T12:16:11;102081.78;;;7.51;36.54
63903;BME280;50072;50.678;13.938;2023-02-08T12:21:21;102083.66;;;5.00;40.87
63903;BME280;50072;50.678;13.938;2023-02-08T12:24:05;102076.38;;;4.25;43.06
63903;BME280;50072;50.678;13.938;2023-02-08T12:30:03;102066.78;;;3.41;45.67
63903;BME280;50072;50.678;13.938;2023-02-08T12:50:16;102045.06;;;1.40;51.07
63903;BME280;50072;50.678;13.938;2023-02-08T12:52:49;102043.19;;;1.55;51.47
63903;BME280;50072;50.678;13.938;2023-02-08T12:55:27;102045.53;;;1.49;51.75
63903;BME280;50072;50.678;13.938;2023-02-08T12:58:25;102038.25;;;1.27;51.15
63903;BME280;50072;50.678;13.938;2023-02-08T13:00:51;102047.16;;;1.29;51.94
63903;BME280;50072;50.678;13.938;2023-02-08T13:06:12;102040.53;;;1.02;52.37
63903;BME280;50072;50.678;13.938;2023-02-08T13:08:51;102042.63;;;0.75;53.71
63903;BME280;50072;50.678;13.938;2023-02-08T13:14:00;102034.91;;;0.62;54.48
63903;BME280;50072;50.678;13.938;2023-02-08T13:16:33;102035.38;;;0.71;54.82
63903;BME280;50072;50.678;13.938;2023-02-08T13:21:50;102027.47;;;0.22;56.08
63903;BME280;50072;50.678;13.938;2023-02-08T13:26:58;102037.94;;;0.86;56.38
63903;BME280;50072;50.678;13.938;2023-02-08T13:29:25;102030.50;;;0.95;55.87
63903;BME280;50072;50.678;13.938;2023-02-08T13:31:57;102023.44;;;0.78;56.28
63903;BME280;50072;50.678;13.938;2023-02-08T13:34:28;102031.72;;;1.02;56.12
63903;BME280;50072;50.678;13.938;2023-02-08T13:37:02;102020.22;;;1.18;56.33
63903;BME280;50072;50.678;13.938;2023-02-08T13:39:38;102019.00;;;1.46;55.13
63903;BME280;50072;50.678;13.938;2023-02-08T13:42:25;102019.44;;;1.37;54.35
63903;BME280;50072;50.678;13.938;2023-02-08T13:44:53;102018.53;;;1.18;54.50
63903;BME280;50072;50.678;13.938;2023-02-08T13:47:29;102018.09;;;0.93;55.09
63903;BME280;50072;50.678;13.938;2023-02-08T13:49:59;102012.09;;;1.13;54.72
63903;BME280;50072;50.678;13.938;2023-02-08T14:03:27;101993.91;;;6.24;42.08
63903;BME280;50072;50.678;13.938;2023-02-08T14:06:04;101996.16;;;6.11;42.00
63903;BME280;50072;50.678;13.938;2023-02-08T14:11:17;101985.88;;;7.51;39.82
63903;BME280;50072;50.678;13.938;2023-02-08T14:13:57;101983.91;;;7.44;39.55
63903;BME280;50072;50.678;13.938;2023-02-08T14:16:33;101978.81;;;7.55;38.69
63903;BME280;50072;50.678;13.938;2023-02-08T14:19:03;101978.94;;;7.23;39.35
63903;BME280;50072;50.678;13.938;2023-02-08T14:24:36;101976.56;;;7.72;38.10
63903;BME280;50072;50.678;13.938;2023-02-08T14:29:31;101969.19;;;7.25;39.31
63903;BME280;50072;50.678;13.938;2023-02-08T14:31:58;101972.34;;;7.43;39.12
63903;BME280;50072;50.678;13.938;2023-02-08T14:34:31;101968.66;;;7.38;38.55
63903;BME280;50072;50.678;13.938;2023-02-08T14:39:36;101951.88;;;6.42;41.12
63903;BME280;50072;50.678;13.938;2023-02-08T14:42:05;101955.81;;;6.25;41.99
63903;BME280;50072;50.678;13.938;2023-02-08T14:49:57;101956.22;;;6.08;41.79
63903;BME280;50072;50.678;13.938;2023-02-08T14:52:27;101959.22;;;5.92;42.12
63903;BME280;50072;50.678;13.938;2023-02-08T14:55:16;101956.78;;;5.98;42.50
63903;BME280;50072;50.678;13.938;2023-02-08T14:57:43;101959.50;;;5.99;42.38
63903;BME280;50072;50.678;13.938;2023-02-08T15:00:20;101946.19;;;5.99;42.22
63903;BME280;50072;50.678;13.938;2023-02-08T15:02:48;101948.16;;;5.78;42.49
63903;BME280;50072;50.678;13.938;2023-02-08T15:05:28;101941.28;;;5.84;42.51
63903;BME280;50072;50.678;13.938;2023-02-08T15:07:59;101932.22;;;5.49;43.17
63903;BME280;50072;50.678;13.938;2023-02-08T15:10:33;101926.78;;;4.93;44.58
63903;BME280;50072;50.678;13.938;2023-02-08T15:13:05;101925.44;;;4.06;46.72
63903;BME280;50072;50.678;13.938;2023-02-08T15:15:39;101938.31;;;3.07;48.72
63903;BME280;50072;50.678;13.938;2023-02-08T15:18:19;101940.88;;;2.64;50.43
63903;BME280;50072;50.678;13.938;2023-02-08T15:21:00;101942.56;;;2.22;51.15
63903;BME280;50072;50.678;13.938;2023-02-08T15:23:27;101940.31;;;2.12;52.07
63903;BME280;50072;50.678;13.938;2023-02-08T15:25:57;101938.03;;;1.82;52.43
63903;BME280;50072;50.678;13.938;2023-02-08T15:28:25;101943.75;;;1.54;52.78